Earl Grey — CG3029 — position and weather

sailwx.info

Track history (hours):
 
Tides and Currents Weather Stations Pressure Air Temp Water Temp Dewpoint Dewpoint Depression Visibility Wind Speed Wind Dir Waves Ship Positions

Earl Grey

Last reported at 2018-Jun-25 04:00 UTC. Time now 2018-Jun-25 04:32 UTC.
Position N 56°30' W 061°42'.

Length 70 m; draft 5.8 m.

Type: SAR. MMSI: 316001640.

Wind from 120 at 1 knots

Barometer 1015.8 mb
Air temperature 2.3 ° C
Dewpoint 0.1 ° C

Date/timePositionNaut miles runAvg speedWind from/ knotsBaromVisibWave heightAir tempDewpointWater temp
2018-Jun-25 04:00N 56°30' W 061°42'0 0.0 120 / 11015.8 2.3 0.1
2018-Jun-25 03:00N 56°30' W 061°42'0 0.0 290 / 11015.5 2.0 0.5
2018-Jun-25 02:00N 56°30' W 061°42'0 0.0 290 / 21015.3 3.7 0.3
2018-Jun-25 01:00N 56°30' W 061°42'0 0.0 290 / 11014.9 4.1 0.3
2018-Jun-25 00:00N 56°30' W 061°42'0 0.0 030 / 11014.2 4.3 0.5
2018-Jun-24 23:00N 56°30' W 061°42'0 0.0 040 / 31013.4 4.9 0.7
2018-Jun-24 22:00N 56°30' W 061°42'0 0.0 340 / 101012.6 7.9 0.7
2018-Jun-24 21:00N 56°30' W 061°42'0 0.0 270 / 111012.0 9.5 0.6
2018-Jun-24 20:00N 56°30' W 061°42'0 0.0 270 / 111011.6 9.2 0.7
2018-Jun-24 19:00N 56°30' W 061°42'0 0.0 270 / 141011.3 8.6 0.7
2018-Jun-24 18:00N 56°30' W 061°42'0 0.0 270 / 141011.2 8.4 0.7
2018-Jun-24 17:00N 56°30' W 061°42'0 0.0 290 / 111011.1 7.8 0.1
2018-Jun-24 16:00N 56°30' W 061°42'0 0.0 270 / 131011.3 7.2-0.1
2018-Jun-24 15:00N 56°30' W 061°42'0 0.0 270 / 121011.2 6.9-0.5
2018-Jun-24 14:00N 56°30' W 061°42'0 0.0 260 / 141011.1 6.3-0.6
2018-Jun-24 13:00N 56°30' W 061°42'0 0.0 270 / 111010.9 5.8-0.4
2018-Jun-24 12:00N 56°30' W 061°42'7 6.9 270 / 81010.4 5.2-0.5
2018-Jun-24 11:00N 56°36' W 061°36'0 0.0 300 / 121010.3 3.8-0.1
2018-Jun-24 10:00N 56°36' W 061°36'0 0.0 300 / 131009.5 2.6 0.1
2018-Jun-24 09:00N 56°36' W 061°36'0 0.0 290 / 131009.3 2.4-0.3
2018-Jun-24 08:00N 56°36' W 061°36'0 0.0 300 / 121008.8 2.4-0.1
2018-Jun-24 07:00N 56°36' W 061°36'0 0.0 280 / 131008.6 3.1-0.1
2018-Jun-24 06:00N 56°36' W 061°36'0 0.0 290 / 121008.4 1.9 0.1
2018-Jun-24 05:00N 56°36' W 061°36'0 0.0 310 / 161007.7 3.7-0.2
2018-Jun-24 04:00N 56°36' W 061°36'0 0.0 300 / 111008.1 2.6-0.1
2018-Jun-24 03:00N 56°36' W 061°36'0 0.0 290 / 111007.9 3.9 0.1
2018-Jun-24 02:00N 56°36' W 061°36'0 0.0 260 / 131007.9 4.1 0.7
2018-Jun-24 01:00N 56°36' W 061°36'0 0.0 300 / 101007.5 3.6 1.6
2018-Jun-24 00:00N 56°36' W 061°36'0 0.0 310 / 121007.0 3.8 2.1
2018-Jun-23 23:00N 56°36' W 061°36'0 0.0 290 / 171005.6 4.0 2.2
2018-Jun-23 22:00N 56°36' W 061°36'9 8.9 260 / 211005.1 4.3 1.5
2018-Jun-23 21:00N 56°30' W 061°24'0 0.0 290 / 171005.0 7.0 0.6
2018-Jun-23 20:00N 56°30' W 061°24'7 6.6 260 / 201003.5 6.2-0.8
2018-Jun-23 19:00N 56°30' W 061°12'7 6.9 250 / 171003.8 6.0 1.5
2018-Jun-23 18:00N 56°24' W 061°06'9 9.0 210 / 61003.6 5.6 2.0
2018-Jun-23 17:00N 56°18' W 060°54'1212.0 260 / 191003.2 4.3 1.2
2018-Jun-23 16:00N 56°06' W 060°54'14 6.9 260 / 61004.1 6.1 0.7
2018-Jun-23 14:00N 55°54' W 060°42'1010.1 240 / 141004.0 6.0 0.7
2018-Jun-23 13:00N 55°54' W 060°24'3 3.4 260 / 141004.2 5.0 1.6
2018-Jun-23 12:00N 55°54' W 060°18'7 6.7 250 / 151004.0 5.3 1.9
2018-Jun-23 11:00N 55°54' W 060°06'1010.1 240 / 101003.7 2.8 1.3
2018-Jun-23 10:00N 55°54' W 059°48'1615.7 250 / 151002.7 2.2 1.2
2018-Jun-23 09:00N 55°42' W 059°30'1413.8 270 / 121002.8 3.0 1.4
2018-Jun-23 08:00N 55°54' W 059°42'1313.5 290 / 101002.4 2.8 1.2
2018-Jun-23 07:00N 55°54' W 060°06'7 6.7 300 / 61002.3 2.8 1.1
2018-Jun-23 06:00N 55°54' W 060°18'3 3.4 290 / 71001.8 5.3 2.4
2018-Jun-23 05:00N 55°54' W 060°24'3 3.4 300 / 101001.5 5.9 3.3
2018-Jun-23 04:00N 55°54' W 060°30'1010.1 230 / 71001.3 6.2 4.4
2018-Jun-23 03:00N 55°54' W 060°48'3 3.4 270 / 101001.2 7.6 6.2
2018-Jun-23 02:00N 55°54' W 060°54'0 0.0 240 / 11000.8 7.1 6.5
2018-Jun-23 01:00N 55°54' W 060°54'0 0.0 240 / 21000.4 7.9 7.0
2018-Jun-23 00:00N 55°54' W 060°54'0 0.0 210 / 41000.1 8.1 6.9
2018-Jun-22 23:00N 55°54' W 060°54'0 0.0 240 / 41000.1 7.5 6.7
2018-Jun-22 22:00N 55°54' W 060°54'0 0.0 230 / 91000.1 8.0 6.6
2018-Jun-22 21:00N 55°54' W 060°54'0 0.0 240 / 4999.9 10.5 4.8
2018-Jun-22 20:00N 55°54' W 060°54'0 0.0 240 / 41000.1 10.5 4.1
2018-Jun-22 19:00N 55°54' W 060°54'0 0.0 230 / 61000.2 11.4 4.2
2018-Jun-22 18:00N 55°54' W 060°54'0 0.0 240 / 91000.7 11.1 4.8
2018-Jun-22 17:00N 55°54' W 060°54'0 0.0 230 / 51001.1 11.7 3.5
2018-Jun-22 16:00N 55°54' W 060°54'3 3.4 230 / 81001.4 11.6 1.9
2018-Jun-22 15:00N 55°54' W 061°00'3 3.4 250 / 141002.2 13.2 2.3
2018-Jun-22 14:00N 55°54' W 061°06'0 0.0 220 / 81002.9 14.1 2.0
2018-Jun-22 13:00N 55°54' W 061°06'0 0.0 220 / 41003.9 12.0 1.7
2018-Jun-22 12:00N 55°54' W 061°06'3 3.4 100 / 11004.7 8.3 1.9
2018-Jun-22 11:00N 55°54' W 061°00'0 0.0 070 / 11005.2 6.9 2.3
2018-Jun-22 10:00N 55°54' W 061°00'0 0.0 1005.4 5.6 1.6
2018-Jun-22 09:00N 55°54' W 061°00'0 0.0 300 / 11005.5 4.4 1.1
2018-Jun-22 08:00N 55°54' W 061°00'0 0.0 310 / 31005.7 3.5 0.8
2018-Jun-22 07:00N 55°54' W 061°00'0 0.0 110 / 11005.9 2.9 1.1
2018-Jun-22 06:00N 55°54' W 061°00'0 0.0 240 / 21006.1 3.4 0.6
2018-Jun-22 05:00N 55°54' W 061°00'0 0.0 1006.4 4.4 1.1
2018-Jun-22 04:00N 55°54' W 061°00'0 0.0 240 / 41006.4 4.6 0.8
2018-Jun-22 03:00N 55°54' W 061°00'0 0.0 240 / 51006.5 5.7 1.1
2018-Jun-22 02:00N 55°54' W 061°00'0 0.0 230 / 31006.6 6.8 1.5
2018-Jun-22 01:00N 55°54' W 061°00'0 0.0 230 / 11006.3 7.8 2.1
2018-Jun-22 00:00N 55°54' W 061°00'0 0.0 1006.0 8.1 2.3
2018-Jun-21 23:00N 55°54' W 061°00'0 0.0 350 / 21005.8 5.6 2.9
2018-Jun-21 22:00N 55°54' W 061°00'0 0.0 070 / 21005.6 4.7 2.8
2018-Jun-21 21:00N 55°54' W 061°00'0 0.0 120 / 61005.6 7.5 3.8
2018-Jun-21 20:00N 55°54' W 061°00'0 0.0 100 / 71005.4 6.6 3.4
2018-Jun-21 19:00N 55°54' W 061°00'3 3.4 110 / 51005.5 6.8 3.5
2018-Jun-21 18:00N 55°54' W 061°06'0 0.0 160 / 21005.3 8.4 3.9
2018-Jun-21 17:00N 55°54' W 061°06'1010.1 160 / 21005.3 5.8 3.4
2018-Jun-21 16:00N 55°54' W 060°48'7 6.7 120 / 91005.6 2.6 2.5
2018-Jun-21 15:00N 55°54' W 060°36'3 3.4 110 / 51005.5 2.1 2.0
2018-Jun-21 14:00N 55°54' W 060°30'0 0.0 130 / 61005.4 3.4 2.9
2018-Jun-21 13:00N 55°54' W 060°30'3 3.4 140 / 51005.1 2.0 1.9
2018-Jun-21 12:00N 55°54' W 060°24'0 0.0 130 / 21004.7 2.1 2.1
2018-Jun-21 11:00N 55°54' W 060°24'3 3.4 170 / 11004.4 1.0 1.0
2018-Jun-21 10:00N 55°54' W 060°18'7 6.7 230 / 41004.1 0.8 0.8
2018-Jun-21 09:00N 55°54' W 060°06'7 6.7 240 / 61003.5 0.5 0.5
2018-Jun-21 08:00N 55°54' W 059°54'1010.1 220 / 91002.7 -0.1-0.1
2018-Jun-21 07:00N 55°54' W 059°36'3 3.4 250 / 61002.2 -0.4-0.5
2018-Jun-21 06:00N 55°54' W 059°30'7 6.9 260 / 111001.9 -0.6-0.6
2018-Jun-21 05:00N 55°48' W 059°24'7 6.9 250 / 111001.6 -0.6-0.7
2018-Jun-21 04:00N 55°42' W 059°18'3 3.4 280 / 121001.2 -0.6-0.7
2018-Jun-21 03:00N 55°42' W 059°12'6 6.0 270 / 121001.1 -0.5-0.6
2018-Jun-21 02:00N 55°36' W 059°12'7 6.9 270 / 121000.8 -0.5-0.5
2018-Jun-21 01:00N 55°30' W 059°06'6 6.0 290 / 131000.6 -0.5-0.6
2018-Jun-21 00:00N 55°24' W 059°06'6 6.0 260 / 71000.1 -0.3-0.4
2018-Jun-20 23:00N 55°18' W 059°06'3 3.4 250 / 4999.7 0.3 0.2
2018-Jun-20 22:00N 55°18' W 059°12'6 6.0 270 / 7999.0 2.0 1.7
2018-Jun-20 21:00N 55°12' W 059°12'12 6.0 250 / 4998.6 1.6 1.5
2018-Jun-20 19:00N 55°06' W 059°30'1212.5 040 / 7996.8 2.9 2.8
2018-Jun-20 18:00N 54°54' W 059°36'3 3.5 060 / 8995.6 5.2 4.4
2018-Jun-20 17:00N 54°54' W 059°42'0 0.0 060 / 13995.4 4.3 4.1
2018-Jun-20 16:00N 54°54' W 059°42'0 0.0 320 / 6995.2 9.5 5.1
2018-Jun-20 15:00N 54°54' W 059°42'0 0.0 310 / 8995.1 9.0 4.9
2018-Jun-20 14:00N 54°54' W 059°42'0 0.0 300 / 9995.0 8.3 5.1
2018-Jun-20 13:00N 54°54' W 059°42'0 0.0 270 / 11994.7 7.8 5.1
2018-Jun-20 12:00N 54°54' W 059°42'0 0.0 270 / 8994.5 7.0 5.1
2018-Jun-20 11:00N 54°54' W 059°42'0 0.0 270 / 6994.5 5.9 5.2
2018-Jun-20 10:00N 54°54' W 059°42'0 0.0 260 / 7994.5 4.7 4.6
2018-Jun-20 09:00N 54°54' W 059°42'0 0.0 290 / 9994.5 4.1 4.1
2018-Jun-20 08:00N 54°54' W 059°42'0 0.0 300 / 6994.5 3.5 3.4
2018-Jun-20 07:00N 54°54' W 059°42'0 0.0 290 / 9994.4 3.1 3.1
2018-Jun-20 06:00N 54°54' W 059°42'0 0.0 300 / 8994.2 3.0 3.0
2018-Jun-20 05:00N 54°54' W 059°42'0 0.0 310 / 10993.8 3.1 3.0
2018-Jun-20 04:00N 54°54' W 059°42'0 0.0 310 / 8994.0 3.2 3.1
2018-Jun-20 03:00N 54°54' W 059°42'0 0.0 310 / 10994.0 3.2 3.1
2018-Jun-20 02:00N 54°54' W 059°42'0 0.0 300 / 11994.2 3.3 3.2
2018-Jun-20 01:00N 54°54' W 059°42'0 0.0 300 / 10994.3 3.3 3.2
2018-Jun-20 00:00N 54°54' W 059°42'0 0.0 300 / 8993.9 3.2 3.1
2018-Jun-19 23:00N 54°54' W 059°42'0 0.0 300 / 8993.8 3.2 3.1
2018-Jun-19 22:00N 54°54' W 059°42'0 0.0 300 / 9993.4 3.3 3.2
2018-Jun-19 21:00N 54°54' W 059°42'0 0.0 310 / 12993.1 3.5 3.4
2018-Jun-19 20:00N 54°54' W 059°42'0 0.0 320 / 14992.7 3.6 3.5
2018-Jun-19 19:00N 54°54' W 059°42'0 0.0 310 / 12992.2 4.1 3.9
2018-Jun-19 18:00N 54°54' W 059°42'3 3.5 310 / 9991.9 4.5 4.4
2018-Jun-19 17:00N 54°54' W 059°36'1212.5 310 / 12991.5 3.5 3.4
2018-Jun-19 16:00N 55°06' W 059°30'3 3.4 310 / 16991.3 2.6 2.5
2018-Jun-19 15:00N 55°06' W 059°24'0 0.0 320 / 16991.3 3.4 3.3
2018-Jun-19 14:00N 55°06' W 059°24'7 6.9 310 / 21991.3 1.9 1.9
2018-Jun-19 13:00N 55°00' W 059°30'0 0.0 300 / 9991.5 2.3 2.2
2018-Jun-19 12:00N 55°00' W 059°30'6 6.0 310 / 14991.1 1.9 1.8
2018-Jun-19 11:00N 55°06' W 059°30'3 3.4 320 / 6991.2 1.6 1.6
2018-Jun-19 10:00N 55°06' W 059°24'0 0.0 310 / 9990.8 2.6 2.6
2018-Jun-19 09:00N 55°06' W 059°24'0 0.0 300 / 7990.6 3.1 3.1
2018-Jun-19 08:00N 55°06' W 059°24'0 0.0 320 / 14990.3 3.1 3.0
2018-Jun-19 07:00N 55°06' W 059°24'0 0.0 310 / 9990.5 3.6 3.6
2018-Jun-19 06:00N 55°06' W 059°24'0 0.0 330 / 11990.5 4.2 4.1
2018-Jun-19 05:00N 55°06' W 059°24'0 0.0 270 / 2990.6 5.9 5.8
2018-Jun-19 04:00N 55°06' W 059°24'0 0.0 160 / 3990.9 5.9 5.9
2018-Jun-19 03:00N 55°06' W 059°24'0 0.0 160 / 3991.6 6.3 6.3
2018-Jun-19 02:00N 55°06' W 059°24'0 0.0 150 / 4992.4 6.7 6.6
2018-Jun-19 01:00N 55°06' W 059°24'0 0.0 160 / 6993.1 6.5 6.5
2018-Jun-19 00:00N 55°06' W 059°24'0 0.0 180 / 8993.6 6.6 6.6
2018-Jun-18 23:00N 55°06' W 059°24'0 0.0 170 / 7994.6 6.9 6.9
2018-Jun-18 22:00N 55°06' W 059°24'0 0.0 180 / 9995.7 7.4 7.2
2018-Jun-18 21:00N 55°06' W 059°24'7 6.9 210 / 5996.8 6.2 6.1
2018-Jun-18 20:00N 55°12' W 059°18'7 6.8 140 / 11997.6 7.5 7.4
2018-Jun-18 19:00N 55°12' W 059°06'6 6.0 160 / 8999.1 7.1 7.1
2018-Jun-18 18:00N 55°06' W 059°06'3 3.4 180 / 13999.8 7.6 7.4
2018-Jun-18 17:00N 55°06' W 059°12'0 0.0 170 / 101000.4 8.5 7.2
2018-Jun-18 16:00N 55°06' W 059°12'7 6.9 260 / 51001.4 9.3 6.2
2018-Jun-18 15:00N 55°12' W 059°06'0 0.0 180 / 101002.0 10.5 5.6
2018-Jun-18 14:00N 55°12' W 059°06'3 3.4 190 / 91002.6 13.7 6.2
2018-Jun-18 13:00N 55°12' W 059°00'7 6.9 190 / 141003.3 9.3 3.5
2018-Jun-18 12:00N 55°18' W 058°54'0 0.0 190 / 101003.9 5.6 2.4
2018-Jun-18 11:00N 55°18' W 058°54'0 0.0 210 / 71004.9 5.9 2.7
2018-Jun-18 10:00N 55°18' W 058°54'0 0.0 200 / 111005.2 6.8 2.9
2018-Jun-18 09:00N 55°18' W 058°54'0 0.0 190 / 81005.7 6.5 2.8
2018-Jun-18 08:00N 55°18' W 058°54'0 0.0 180 / 81006.2 6.7 2.2
2018-Jun-18 06:00N 55°18' W 058°54'0 0.0 180 / 81007.5 5.3 1.2
2018-Jun-18 05:00N 55°18' W 058°54'0 0.0 170 / 91008.0 5.7 1.2
2018-Jun-18 04:00N 55°18' W 058°54'0 0.0 160 / 91009.0 6.9 1.7
2018-Jun-18 03:00N 55°18' W 058°54'0 0.0 170 / 91009.6 9.7 2.1
2018-Jun-18 02:00N 55°18' W 058°54'0 0.0 170 / 61010.4 10.9 2.1
2018-Jun-18 01:00N 55°18' W 058°54'0 0.0 180 / 101011.1 11.7 2.7
2018-Jun-18 00:00N 55°18' W 058°54'0 0.0 180 / 91011.7 11.8 2.9
2018-Jun-17 23:00N 55°18' W 058°54'0 0.0 180 / 91012.2 11.3 2.8
2018-Jun-17 22:00N 55°18' W 058°54'7 6.9 150 / 71012.9 8.7 1.4
2018-Jun-17 21:00N 55°12' W 058°48'1010.3 150 / 101013.6 12.4 2.2
2018-Jun-17 20:00N 55°12' W 058°30'2512.4 160 / 81015.2 6.5 1.7
2018-Jun-17 18:00N 55°06' W 057°48'1211.9 130 / 121017.7 1.6 1.4
2018-Jun-17 17:00N 55°00' W 057°30'1212.0 120 / 121018.8 0.8 0.7
2018-Jun-17 16:00N 54°54' W 057°12'1212.0 150 / 111019.8 -0.1-0.2
2018-Jun-17 15:00N 54°48' W 056°54'9 9.2 160 / 111020.7 -0.9-1.0
2018-Jun-17 14:00N 54°42' W 056°42'1212.0 190 / 81021.3 -0.9-1.0
2018-Jun-17 13:00N 54°30' W 056°42'7 6.9 180 / 41021.5 -0.9-0.9
2018-Jun-17 12:00N 54°24' W 056°48'3 3.5 200 / 21021.5 -0.4-0.5
2018-Jun-17 11:00N 54°24' W 056°54'7 7.0 040 / 11021.5 -0.3-0.4
2018-Jun-17 10:00N 54°24' W 057°06'1515.2 360 / 31021.5 -0.3-0.4
2018-Jun-17 09:00N 54°18' W 057°30'1414.0 270 / 71021.7 0.5 0.4
2018-Jun-17 08:00N 54°18' W 057°54'1515.3 300 / 51021.8 1.0 0.8
2018-Jun-17 07:00N 54°12' W 058°18'1212.1 250 / 61021.8 1.7 1.2
2018-Jun-17 06:00N 54°06' W 058°36'9 9.3 290 / 41021.6 2.4 1.2
2018-Jun-17 05:00N 54°00' W 058°48'0 0.0 310 / 11021.7 2.9 1.8
2018-Jun-17 04:00N 54°00' W 058°48'0 0.0 330 / 31021.4 2.9 1.8
2018-Jun-17 03:00N 54°00' W 058°48'0 0.0 350 / 21021.3 3.3 2.0
2018-Jun-17 02:00N 54°00' W 058°48'0 0.0 010 / 21020.9 3.5 2.2
2018-Jun-17 01:00N 54°00' W 058°48'0 0.0 340 / 81020.4 3.7 2.0
2018-Jun-17 00:00N 54°00' W 058°48'0 0.0 360 / 61019.9 4.2 2.0
2018-Jun-16 23:00N 54°00' W 058°48'0 0.0 340 / 121018.9 4.7 2.0
2018-Jun-16 22:00N 54°00' W 058°48'0 0.0 360 / 101018.5 5.2 1.9
2018-Jun-16 21:00N 54°00' W 058°48'0 0.0 330 / 121017.6 6.0 1.8
2018-Jun-16 20:00N 54°00' W 058°48'0 0.0 330 / 91017.1 6.1 1.9
2018-Jun-16 19:00N 54°00' W 058°48'0 0.0 320 / 141016.2 6.0 1.6
2018-Jun-16 18:00N 54°00' W 058°48'0 0.0 310 / 121015.9 5.5 1.0
2018-Jun-16 17:00N 54°00' W 058°48'0 0.0 320 / 131015.4 5.9 1.0
2018-Jun-16 16:00N 54°00' W 058°48'0 0.0 300 / 111015.1 5.2 0.3
2018-Jun-16 15:00N 54°00' W 058°48'0 0.0 300 / 101014.8 4.6-0.0
2018-Jun-16 14:00N 54°00' W 058°48'0 0.0 300 / 141014.1 4.6-0.4
2018-Jun-16 13:00N 54°00' W 058°48'0 0.0 300 / 141013.9 4.1-0.4
2018-Jun-16 12:00N 54°00' W 058°48'0 0.0 320 / 141013.1 3.9-0.4
2018-Jun-16 11:00N 54°00' W 058°48'0 0.0 300 / 141012.4 3.4-0.4
2018-Jun-16 10:00N 54°00' W 058°48'0 0.0 300 / 131011.6 3.1-0.3
2018-Jun-16 09:00N 54°00' W 058°48'0 0.0 310 / 141011.4 2.6-0.5
2018-Jun-16 08:00N 54°00' W 058°48'0 0.0 290 / 101011.0 2.4-0.5
2018-Jun-16 07:00N 54°00' W 058°48'0 0.0 280 / 121010.7 2.5-0.4
2018-Jun-16 06:00N 54°00' W 058°48'0 0.0 280 / 111010.5 2.8 0.2
2018-Jun-16 05:00N 54°00' W 058°48'0 0.0 300 / 111010.4 2.9 0.2
2018-Jun-16 04:00N 54°00' W 058°48'0 0.0 270 / 121010.1 3.0 0.6
2018-Jun-16 03:00N 54°00' W 058°48'0 0.0 280 / 91010.1 3.2 0.9
2018-Jun-16 02:00N 54°00' W 058°48'0 0.0 310 / 81009.7 3.7 0.7
2018-Jun-16 01:00N 54°00' W 058°48'1212.2 290 / 31009.4 4.1 1.1
2018-Jun-16 00:00N 54°06' W 058°30'9 9.2 340 / 41008.7 4.0 1.1
2018-Jun-15 23:00N 54°12' W 058°18'1414.0 320 / 61008.0 2.9 1.2
2018-Jun-15 22:00N 54°12' W 057°54'1414.0 320 / 91006.9 2.2 1.2
2018-Jun-15 21:00N 54°12' W 057°30'1110.5 310 / 101006.4 2.6 1.1
2018-Jun-15 20:00N 54°12' W 057°12'7 7.0 330 / 131006.2 1.3 1.1
2018-Jun-15 19:00N 54°12' W 057°00'4 3.5 310 / 91005.9 1.4 0.9
2018-Jun-15 18:00N 54°12' W 056°54'4 3.5 300 / 101005.2 1.1 1.0
2018-Jun-15 17:00N 54°12' W 056°48'4 3.5 300 / 101004.6 1.1 0.9
2018-Jun-15 16:00N 54°12' W 056°42'7 7.0 300 / 141004.0 1.0 0.8
2018-Jun-15 15:00N 54°12' W 056°30'9 9.2 290 / 141003.7 0.4 0.3
2018-Jun-15 14:00N 54°06' W 056°18'1212.2 260 / 111002.9 0.4 0.2
2018-Jun-15 13:00N 54°00' W 056°00'7 7.0 280 / 121003.0 -0.1-0.2
2018-Jun-15 12:00N 53°54' W 055°54'4 3.5 290 / 111002.6 0.1-0.0
2018-Jun-15 11:00N 53°54' W 055°48'6 6.0 300 / 121002.1 0.3 0.2
2018-Jun-15 10:00N 53°48' W 055°48'4 3.5 300 / 101002.0 0.2 0.1
2018-Jun-15 09:00N 53°48' W 055°42'7 7.0 290 / 121001.6 0.4 0.2
2018-Jun-15 08:00N 53°42' W 055°36'7 7.0 270 / 141001.3 1.6 0.5
2018-Jun-15 07:00N 53°36' W 055°30'1414.0 290 / 141000.8 1.6 0.5
2018-Jun-15 06:00N 53°24' W 055°18'6 6.0 290 / 151000.5 4.2 2.0
2018-Jun-15 05:00N 53°18' W 055°18'6 6.0 170 / 61000.6 7.4 2.2
2018-Jun-15 04:00N 53°12' W 055°18'   070 / 21001.0 5.3 1.8
Track history (hours):
 
Tides and Currents Weather Stations Pressure Air Temp Water Temp Dewpoint Dewpoint Depression Visibility Wind Speed Wind Dir Waves Ship Positions

Earl Grey

Last reported at 2018-Jun-25 04:00 UTC. Time now 2018-Jun-25 04:32 UTC.
Position N 56°30' W 061°42'.

Length 70 m; draft 5.8 m.

Type: SAR. MMSI: 316001640.

Wind from 120 at 1 knots

Barometer 1015.8 mb
Air temperature 2.3 ° C
Dewpoint 0.1 ° C

Date/timePositionNaut miles runAvg speedWind from/ knotsBaromVisibWave heightAir tempDewpointWater temp
2018-Jun-25 04:00N 56°30' W 061°42'0 0.0 120 / 11015.8 2.3 0.1
2018-Jun-25 03:00N 56°30' W 061°42'0 0.0 290 / 11015.5 2.0 0.5
2018-Jun-25 02:00N 56°30' W 061°42'0 0.0 290 / 21015.3 3.7 0.3
2018-Jun-25 01:00N 56°30' W 061°42'0 0.0 290 / 11014.9 4.1 0.3
2018-Jun-25 00:00N 56°30' W 061°42'0 0.0 030 / 11014.2 4.3 0.5
2018-Jun-24 23:00N 56°30' W 061°42'0 0.0 040 / 31013.4 4.9 0.7
2018-Jun-24 22:00N 56°30' W 061°42'0 0.0 340 / 101012.6 7.9 0.7
2018-Jun-24 21:00N 56°30' W 061°42'0 0.0 270 / 111012.0 9.5 0.6
2018-Jun-24 20:00N 56°30' W 061°42'0 0.0 270 / 111011.6 9.2 0.7
2018-Jun-24 19:00N 56°30' W 061°42'0 0.0 270 / 141011.3 8.6 0.7
2018-Jun-24 18:00N 56°30' W 061°42'0 0.0 270 / 141011.2 8.4 0.7
2018-Jun-24 17:00N 56°30' W 061°42'0 0.0 290 / 111011.1 7.8 0.1
2018-Jun-24 16:00N 56°30' W 061°42'0 0.0 270 / 131011.3 7.2-0.1
2018-Jun-24 15:00N 56°30' W 061°42'0 0.0 270 / 121011.2 6.9-0.5
2018-Jun-24 14:00N 56°30' W 061°42'0 0.0 260 / 141011.1 6.3-0.6
2018-Jun-24 13:00N 56°30' W 061°42'0 0.0 270 / 111010.9 5.8-0.4
2018-Jun-24 12:00N 56°30' W 061°42'7 6.9 270 / 81010.4 5.2-0.5
2018-Jun-24 11:00N 56°36' W 061°36'0 0.0 300 / 121010.3 3.8-0.1
2018-Jun-24 10:00N 56°36' W 061°36'0 0.0 300 / 131009.5 2.6 0.1
2018-Jun-24 09:00N 56°36' W 061°36'0 0.0 290 / 131009.3 2.4-0.3
2018-Jun-24 08:00N 56°36' W 061°36'0 0.0 300 / 121008.8 2.4-0.1
2018-Jun-24 07:00N 56°36' W 061°36'0 0.0 280 / 131008.6 3.1-0.1
2018-Jun-24 06:00N 56°36' W 061°36'0 0.0 290 / 121008.4 1.9 0.1
2018-Jun-24 05:00N 56°36' W 061°36'0 0.0 310 / 161007.7 3.7-0.2
2018-Jun-24 04:00N 56°36' W 061°36'0 0.0 300 / 111008.1 2.6-0.1
2018-Jun-24 03:00N 56°36' W 061°36'0 0.0 290 / 111007.9 3.9 0.1
2018-Jun-24 02:00N 56°36' W 061°36'0 0.0 260 / 131007.9 4.1 0.7
2018-Jun-24 01:00N 56°36' W 061°36'0 0.0 300 / 101007.5 3.6 1.6
2018-Jun-24 00:00N 56°36' W 061°36'0 0.0 310 / 121007.0 3.8 2.1
2018-Jun-23 23:00N 56°36' W 061°36'0 0.0 290 / 171005.6 4.0 2.2
2018-Jun-23 22:00N 56°36' W 061°36'9 8.9 260 / 211005.1 4.3 1.5
2018-Jun-23 21:00N 56°30' W 061°24'0 0.0 290 / 171005.0 7.0 0.6
2018-Jun-23 20:00N 56°30' W 061°24'7 6.6 260 / 201003.5 6.2-0.8
2018-Jun-23 19:00N 56°30' W 061°12'7 6.9 250 / 171003.8 6.0 1.5
2018-Jun-23 18:00N 56°24' W 061°06'9 9.0 210 / 61003.6 5.6 2.0
2018-Jun-23 17:00N 56°18' W 060°54'1212.0 260 / 191003.2 4.3 1.2
2018-Jun-23 16:00N 56°06' W 060°54'14 6.9 260 / 61004.1 6.1 0.7
2018-Jun-23 14:00N 55°54' W 060°42'1010.1 240 / 141004.0 6.0 0.7
2018-Jun-23 13:00N 55°54' W 060°24'3 3.4 260 / 141004.2 5.0 1.6
2018-Jun-23 12:00N 55°54' W 060°18'7 6.7 250 / 151004.0 5.3 1.9
2018-Jun-23 11:00N 55°54' W 060°06'1010.1 240 / 101003.7 2.8 1.3
2018-Jun-23 10:00N 55°54' W 059°48'1615.7 250 / 151002.7 2.2 1.2
2018-Jun-23 09:00N 55°42' W 059°30'1413.8 270 / 121002.8 3.0 1.4
2018-Jun-23 08:00N 55°54' W 059°42'1313.5 290 / 101002.4 2.8 1.2
2018-Jun-23 07:00N 55°54' W 060°06'7 6.7 300 / 61002.3 2.8 1.1
2018-Jun-23 06:00N 55°54' W 060°18'3 3.4 290 / 71001.8 5.3 2.4
2018-Jun-23 05:00N 55°54' W 060°24'3 3.4 300 / 101001.5 5.9 3.3
2018-Jun-23 04:00N 55°54' W 060°30'1010.1 230 / 71001.3 6.2 4.4
2018-Jun-23 03:00N 55°54' W 060°48'3 3.4 270 / 101001.2 7.6 6.2
2018-Jun-23 02:00N 55°54' W 060°54'0 0.0 240 / 11000.8 7.1 6.5
2018-Jun-23 01:00N 55°54' W 060°54'0 0.0 240 / 21000.4 7.9 7.0
2018-Jun-23 00:00N 55°54' W 060°54'0 0.0 210 / 41000.1 8.1 6.9
2018-Jun-22 23:00N 55°54' W 060°54'0 0.0 240 / 41000.1 7.5 6.7
2018-Jun-22 22:00N 55°54' W 060°54'0 0.0 230 / 91000.1 8.0 6.6
2018-Jun-22 21:00N 55°54' W 060°54'0 0.0 240 / 4999.9 10.5 4.8
2018-Jun-22 20:00N 55°54' W 060°54'0 0.0 240 / 41000.1 10.5 4.1
2018-Jun-22 19:00N 55°54' W 060°54'0 0.0 230 / 61000.2 11.4 4.2
2018-Jun-22 18:00N 55°54' W 060°54'0 0.0 240 / 91000.7 11.1 4.8
2018-Jun-22 17:00N 55°54' W 060°54'0 0.0 230 / 51001.1 11.7 3.5
2018-Jun-22 16:00N 55°54' W 060°54'3 3.4 230 / 81001.4 11.6 1.9
2018-Jun-22 15:00N 55°54' W 061°00'3 3.4 250 / 141002.2 13.2 2.3
2018-Jun-22 14:00N 55°54' W 061°06'0 0.0 220 / 81002.9 14.1 2.0
2018-Jun-22 13:00N 55°54' W 061°06'0 0.0 220 / 41003.9 12.0 1.7
2018-Jun-22 12:00N 55°54' W 061°06'3 3.4 100 / 11004.7 8.3 1.9
2018-Jun-22 11:00N 55°54' W 061°00'0 0.0 070 / 11005.2 6.9 2.3
2018-Jun-22 10:00N 55°54' W 061°00'0 0.0 1005.4 5.6 1.6
2018-Jun-22 09:00N 55°54' W 061°00'0 0.0 300 / 11005.5 4.4 1.1
2018-Jun-22 08:00N 55°54' W 061°00'0 0.0 310 / 31005.7 3.5 0.8
2018-Jun-22 07:00N 55°54' W 061°00'0 0.0 110 / 11005.9 2.9 1.1
2018-Jun-22 06:00N 55°54' W 061°00'0 0.0 240 / 21006.1 3.4 0.6
2018-Jun-22 05:00N 55°54' W 061°00'0 0.0 1006.4 4.4 1.1
2018-Jun-22 04:00N 55°54' W 061°00'0 0.0 240 / 41006.4 4.6 0.8
2018-Jun-22 03:00N 55°54' W 061°00'0 0.0 240 / 51006.5 5.7 1.1
2018-Jun-22 02:00N 55°54' W 061°00'0 0.0 230 / 31006.6 6.8 1.5
2018-Jun-22 01:00N 55°54' W 061°00'0 0.0 230 / 11006.3 7.8 2.1
2018-Jun-22 00:00N 55°54' W 061°00'0 0.0 1006.0 8.1 2.3
2018-Jun-21 23:00N 55°54' W 061°00'0 0.0 350 / 21005.8 5.6 2.9
2018-Jun-21 22:00N 55°54' W 061°00'0 0.0 070 / 21005.6 4.7 2.8
2018-Jun-21 21:00N 55°54' W 061°00'0 0.0 120 / 61005.6 7.5 3.8
2018-Jun-21 20:00N 55°54' W 061°00'0 0.0 100 / 71005.4 6.6 3.4
2018-Jun-21 19:00N 55°54' W 061°00'3 3.4 110 / 51005.5 6.8 3.5
2018-Jun-21 18:00N 55°54' W 061°06'0 0.0 160 / 21005.3 8.4 3.9
2018-Jun-21 17:00N 55°54' W 061°06'1010.1 160 / 21005.3 5.8 3.4
2018-Jun-21 16:00N 55°54' W 060°48'7 6.7 120 / 91005.6 2.6 2.5
2018-Jun-21 15:00N 55°54' W 060°36'3 3.4 110 / 51005.5 2.1 2.0
2018-Jun-21 14:00N 55°54' W 060°30'0 0.0 130 / 61005.4 3.4 2.9
2018-Jun-21 13:00N 55°54' W 060°30'3 3.4 140 / 51005.1 2.0 1.9
2018-Jun-21 12:00N 55°54' W 060°24'0 0.0 130 / 21004.7 2.1 2.1
2018-Jun-21 11:00N 55°54' W 060°24'3 3.4 170 / 11004.4 1.0 1.0
2018-Jun-21 10:00N 55°54' W 060°18'7 6.7 230 / 41004.1 0.8 0.8
2018-Jun-21 09:00N 55°54' W 060°06'7 6.7 240 / 61003.5 0.5 0.5
2018-Jun-21 08:00N 55°54' W 059°54'1010.1 220 / 91002.7 -0.1-0.1
2018-Jun-21 07:00N 55°54' W 059°36'3 3.4 250 / 61002.2 -0.4-0.5
2018-Jun-21 06:00N 55°54' W 059°30'7 6.9 260 / 111001.9 -0.6-0.6
2018-Jun-21 05:00N 55°48' W 059°24'7 6.9 250 / 111001.6 -0.6-0.7
2018-Jun-21 04:00N 55°42' W 059°18'3 3.4 280 / 121001.2 -0.6-0.7
2018-Jun-21 03:00N 55°42' W 059°12'6 6.0 270 / 121001.1 -0.5-0.6
2018-Jun-21 02:00N 55°36' W 059°12'7 6.9 270 / 121000.8 -0.5-0.5
2018-Jun-21 01:00N 55°30' W 059°06'6 6.0 290 / 131000.6 -0.5-0.6
2018-Jun-21 00:00N 55°24' W 059°06'6 6.0 260 / 71000.1 -0.3-0.4
2018-Jun-20 23:00N 55°18' W 059°06'3 3.4 250 / 4999.7 0.3 0.2
2018-Jun-20 22:00N 55°18' W 059°12'6 6.0 270 / 7999.0 2.0 1.7
2018-Jun-20 21:00N 55°12' W 059°12'12 6.0 250 / 4998.6 1.6 1.5
2018-Jun-20 19:00N 55°06' W 059°30'1212.5 040 / 7996.8 2.9 2.8
2018-Jun-20 18:00N 54°54' W 059°36'3 3.5 060 / 8995.6 5.2 4.4
2018-Jun-20 17:00N 54°54' W 059°42'0 0.0 060 / 13995.4 4.3 4.1
2018-Jun-20 16:00N 54°54' W 059°42'0 0.0 320 / 6995.2 9.5 5.1
2018-Jun-20 15:00N 54°54' W 059°42'0 0.0 310 / 8995.1 9.0 4.9
2018-Jun-20 14:00N 54°54' W 059°42'0 0.0 300 / 9995.0 8.3 5.1
2018-Jun-20 13:00N 54°54' W 059°42'0 0.0 270 / 11994.7 7.8 5.1
2018-Jun-20 12:00N 54°54' W 059°42'0 0.0 270 / 8994.5 7.0 5.1
2018-Jun-20 11:00N 54°54' W 059°42'0 0.0 270 / 6994.5 5.9 5.2
2018-Jun-20 10:00N 54°54' W 059°42'0 0.0 260 / 7994.5 4.7 4.6
2018-Jun-20 09:00N 54°54' W 059°42'0 0.0 290 / 9994.5 4.1 4.1
2018-Jun-20 08:00N 54°54' W 059°42'0 0.0 300 / 6994.5 3.5 3.4
2018-Jun-20 07:00N 54°54' W 059°42'0 0.0 290 / 9994.4 3.1 3.1
2018-Jun-20 06:00N 54°54' W 059°42'0 0.0 300 / 8994.2 3.0 3.0
2018-Jun-20 05:00N 54°54' W 059°42'0 0.0 310 / 10993.8 3.1 3.0
2018-Jun-20 04:00N 54°54' W 059°42'0 0.0 310 / 8994.0 3.2 3.1
2018-Jun-20 03:00N 54°54' W 059°42'0 0.0 310 / 10994.0 3.2 3.1
2018-Jun-20 02:00N 54°54' W 059°42'0 0.0 300 / 11994.2 3.3 3.2
2018-Jun-20 01:00N 54°54' W 059°42'0 0.0 300 / 10994.3 3.3 3.2
2018-Jun-20 00:00N 54°54' W 059°42'0 0.0 300 / 8993.9 3.2 3.1
2018-Jun-19 23:00N 54°54' W 059°42'0 0.0 300 / 8993.8 3.2 3.1
2018-Jun-19 22:00N 54°54' W 059°42'0 0.0 300 / 9993.4 3.3 3.2
2018-Jun-19 21:00N 54°54' W 059°42'0 0.0 310 / 12993.1 3.5 3.4
2018-Jun-19 20:00N 54°54' W 059°42'0 0.0 320 / 14992.7 3.6 3.5
2018-Jun-19 19:00N 54°54' W 059°42'0 0.0 310 / 12992.2 4.1 3.9
2018-Jun-19 18:00N 54°54' W 059°42'3 3.5 310 / 9991.9 4.5 4.4
2018-Jun-19 17:00N 54°54' W 059°36'1212.5 310 / 12991.5 3.5 3.4
2018-Jun-19 16:00N 55°06' W 059°30'3 3.4 310 / 16991.3 2.6 2.5
2018-Jun-19 15:00N 55°06' W 059°24'0 0.0 320 / 16991.3 3.4 3.3
2018-Jun-19 14:00N 55°06' W 059°24'7 6.9 310 / 21991.3 1.9 1.9
2018-Jun-19 13:00N 55°00' W 059°30'0 0.0 300 / 9991.5 2.3 2.2
2018-Jun-19 12:00N 55°00' W 059°30'6 6.0 310 / 14991.1 1.9 1.8
2018-Jun-19 11:00N 55°06' W 059°30'3 3.4 320 / 6991.2 1.6 1.6
2018-Jun-19 10:00N 55°06' W 059°24'0 0.0 310 / 9990.8 2.6 2.6
2018-Jun-19 09:00N 55°06' W 059°24'0 0.0 300 / 7990.6 3.1 3.1
2018-Jun-19 08:00N 55°06' W 059°24'0 0.0 320 / 14990.3 3.1 3.0
2018-Jun-19 07:00N 55°06' W 059°24'0 0.0 310 / 9990.5 3.6 3.6
2018-Jun-19 06:00N 55°06' W 059°24'0 0.0 330 / 11990.5 4.2 4.1
2018-Jun-19 05:00N 55°06' W 059°24'0 0.0 270 / 2990.6 5.9 5.8
2018-Jun-19 04:00N 55°06' W 059°24'0 0.0 160 / 3990.9 5.9 5.9
2018-Jun-19 03:00N 55°06' W 059°24'0 0.0 160 / 3991.6 6.3 6.3
2018-Jun-19 02:00N 55°06' W 059°24'0 0.0 150 / 4992.4 6.7 6.6
2018-Jun-19 01:00N 55°06' W 059°24'0 0.0 160 / 6993.1 6.5 6.5
2018-Jun-19 00:00N 55°06' W 059°24'0 0.0 180 / 8993.6 6.6 6.6
2018-Jun-18 23:00N 55°06' W 059°24'0 0.0 170 / 7994.6 6.9 6.9
2018-Jun-18 22:00N 55°06' W 059°24'0 0.0 180 / 9995.7 7.4 7.2
2018-Jun-18 21:00N 55°06' W 059°24'7 6.9 210 / 5996.8 6.2 6.1
2018-Jun-18 20:00N 55°12' W 059°18'7 6.8 140 / 11997.6 7.5 7.4
2018-Jun-18 19:00N 55°12' W 059°06'6 6.0 160 / 8999.1 7.1 7.1
2018-Jun-18 18:00N 55°06' W 059°06'3 3.4 180 / 13999.8 7.6 7.4
2018-Jun-18 17:00N 55°06' W 059°12'0 0.0 170 / 101000.4 8.5 7.2
2018-Jun-18 16:00N 55°06' W 059°12'7 6.9 260 / 51001.4 9.3 6.2
2018-Jun-18 15:00N 55°12' W 059°06'0 0.0 180 / 101002.0 10.5 5.6
2018-Jun-18 14:00N 55°12' W 059°06'3 3.4 190 / 91002.6 13.7 6.2
2018-Jun-18 13:00N 55°12' W 059°00'7 6.9 190 / 141003.3 9.3 3.5
2018-Jun-18 12:00N 55°18' W 058°54'0 0.0 190 / 101003.9 5.6 2.4
2018-Jun-18 11:00N 55°18' W 058°54'0 0.0 210 / 71004.9 5.9 2.7
2018-Jun-18 10:00N 55°18' W 058°54'0 0.0 200 / 111005.2 6.8 2.9
2018-Jun-18 09:00N 55°18' W 058°54'0 0.0 190 / 81005.7 6.5 2.8
2018-Jun-18 08:00N 55°18' W 058°54'0 0.0 180 / 81006.2 6.7 2.2
2018-Jun-18 06:00N 55°18' W 058°54'0 0.0 180 / 81007.5 5.3 1.2
2018-Jun-18 05:00N 55°18' W 058°54'0 0.0 170 / 91008.0 5.7 1.2
2018-Jun-18 04:00N 55°18' W 058°54'0 0.0 160 / 91009.0 6.9 1.7
2018-Jun-18 03:00N 55°18' W 058°54'0 0.0 170 / 91009.6 9.7 2.1
2018-Jun-18 02:00N 55°18' W 058°54'0 0.0 170 / 61010.4 10.9 2.1
2018-Jun-18 01:00N 55°18' W 058°54'0 0.0 180 / 101011.1 11.7 2.7
2018-Jun-18 00:00N 55°18' W 058°54'0 0.0 180 / 91011.7 11.8 2.9
2018-Jun-17 23:00N 55°18' W 058°54'0 0.0 180 / 91012.2 11.3 2.8
2018-Jun-17 22:00N 55°18' W 058°54'7 6.9 150 / 71012.9 8.7 1.4
2018-Jun-17 21:00N 55°12' W 058°48'1010.3 150 / 101013.6 12.4 2.2
2018-Jun-17 20:00N 55°12' W 058°30'2512.4 160 / 81015.2 6.5 1.7
2018-Jun-17 18:00N 55°06' W 057°48'1211.9 130 / 121017.7 1.6 1.4
2018-Jun-17 17:00N 55°00' W 057°30'1212.0 120 / 121018.8 0.8 0.7
2018-Jun-17 16:00N 54°54' W 057°12'1212.0 150 / 111019.8 -0.1-0.2
2018-Jun-17 15:00N 54°48' W 056°54'9 9.2 160 / 111020.7 -0.9-1.0
2018-Jun-17 14:00N 54°42' W 056°42'1212.0 190 / 81021.3 -0.9-1.0
2018-Jun-17 13:00N 54°30' W 056°42'7 6.9 180 / 41021.5 -0.9-0.9
2018-Jun-17 12:00N 54°24' W 056°48'3 3.5 200 / 21021.5 -0.4-0.5
2018-Jun-17 11:00N 54°24' W 056°54'7 7.0 040 / 11021.5 -0.3-0.4
2018-Jun-17 10:00N 54°24' W 057°06'1515.2 360 / 31021.5 -0.3-0.4
2018-Jun-17 09:00N 54°18' W 057°30'1414.0 270 / 71021.7 0.5 0.4
2018-Jun-17 08:00N 54°18' W 057°54'1515.3 300 / 51021.8 1.0 0.8
2018-Jun-17 07:00N 54°12' W 058°18'1212.1 250 / 61021.8 1.7 1.2
2018-Jun-17 06:00N 54°06' W 058°36'9 9.3 290 / 41021.6 2.4 1.2
2018-Jun-17 05:00N 54°00' W 058°48'0 0.0 310 / 11021.7 2.9 1.8
2018-Jun-17 04:00N 54°00' W 058°48'0 0.0 330 / 31021.4 2.9 1.8
2018-Jun-17 03:00N 54°00' W 058°48'0 0.0 350 / 21021.3 3.3 2.0
2018-Jun-17 02:00N 54°00' W 058°48'0 0.0 010 / 21020.9 3.5 2.2
2018-Jun-17 01:00N 54°00' W 058°48'0 0.0 340 / 81020.4 3.7 2.0
2018-Jun-17 00:00N 54°00' W 058°48'0 0.0 360 / 61019.9 4.2 2.0
2018-Jun-16 23:00N 54°00' W 058°48'0 0.0 340 / 121018.9 4.7 2.0
2018-Jun-16 22:00N 54°00' W 058°48'0 0.0 360 / 101018.5 5.2 1.9
2018-Jun-16 21:00N 54°00' W 058°48'0 0.0 330 / 121017.6 6.0 1.8
2018-Jun-16 20:00N 54°00' W 058°48'0 0.0 330 / 91017.1 6.1 1.9
2018-Jun-16 19:00N 54°00' W 058°48'0 0.0 320 / 141016.2 6.0 1.6
2018-Jun-16 18:00N 54°00' W 058°48'0 0.0 310 / 121015.9 5.5 1.0
2018-Jun-16 17:00N 54°00' W 058°48'0 0.0 320 / 131015.4 5.9 1.0
2018-Jun-16 16:00N 54°00' W 058°48'0 0.0 300 / 111015.1 5.2 0.3
2018-Jun-16 15:00N 54°00' W 058°48'0 0.0 300 / 101014.8 4.6-0.0
2018-Jun-16 14:00N 54°00' W 058°48'0 0.0 300 / 141014.1 4.6-0.4
2018-Jun-16 13:00N 54°00' W 058°48'0 0.0 300 / 141013.9 4.1-0.4
2018-Jun-16 12:00N 54°00' W 058°48'0 0.0 320 / 141013.1 3.9-0.4
2018-Jun-16 11:00N 54°00' W 058°48'0 0.0 300 / 141012.4 3.4-0.4
2018-Jun-16 10:00N 54°00' W 058°48'0 0.0 300 / 131011.6 3.1-0.3
2018-Jun-16 09:00N 54°00' W 058°48'0 0.0 310 / 141011.4 2.6-0.5
2018-Jun-16 08:00N 54°00' W 058°48'0 0.0 290 / 101011.0 2.4-0.5
2018-Jun-16 07:00N 54°00' W 058°48'0 0.0 280 / 121010.7 2.5-0.4
2018-Jun-16 06:00N 54°00' W 058°48'0 0.0 280 / 111010.5 2.8 0.2
2018-Jun-16 05:00N 54°00' W 058°48'0 0.0 300 / 111010.4 2.9 0.2
2018-Jun-16 04:00N 54°00' W 058°48'0 0.0 270 / 121010.1 3.0 0.6
2018-Jun-16 03:00N 54°00' W 058°48'0 0.0 280 / 91010.1 3.2 0.9
2018-Jun-16 02:00N 54°00' W 058°48'0 0.0 310 / 81009.7 3.7 0.7
2018-Jun-16 01:00N 54°00' W 058°48'1212.2 290 / 31009.4 4.1 1.1
2018-Jun-16 00:00N 54°06' W 058°30'9 9.2 340 / 41008.7 4.0 1.1
2018-Jun-15 23:00N 54°12' W 058°18'1414.0 320 / 61008.0 2.9 1.2
2018-Jun-15 22:00N 54°12' W 057°54'1414.0 320 / 91006.9 2.2 1.2
2018-Jun-15 21:00N 54°12' W 057°30'1110.5 310 / 101006.4 2.6 1.1
2018-Jun-15 20:00N 54°12' W 057°12'7 7.0 330 / 131006.2 1.3 1.1
2018-Jun-15 19:00N 54°12' W 057°00'4 3.5 310 / 91005.9 1.4 0.9
2018-Jun-15 18:00N 54°12' W 056°54'4 3.5 300 / 101005.2 1.1 1.0
2018-Jun-15 17:00N 54°12' W 056°48'4 3.5 300 / 101004.6 1.1 0.9
2018-Jun-15 16:00N 54°12' W 056°42'7 7.0 300 / 141004.0 1.0 0.8
2018-Jun-15 15:00N 54°12' W 056°30'9 9.2 290 / 141003.7 0.4 0.3
2018-Jun-15 14:00N 54°06' W 056°18'1212.2 260 / 111002.9 0.4 0.2
2018-Jun-15 13:00N 54°00' W 056°00'7 7.0 280 / 121003.0 -0.1-0.2
2018-Jun-15 12:00N 53°54' W 055°54'4 3.5 290 / 111002.6 0.1-0.0
2018-Jun-15 11:00N 53°54' W 055°48'6 6.0 300 / 121002.1 0.3 0.2
2018-Jun-15 10:00N 53°48' W 055°48'4 3.5 300 / 101002.0 0.2 0.1
2018-Jun-15 09:00N 53°48' W 055°42'7 7.0 290 / 121001.6 0.4 0.2
2018-Jun-15 08:00N 53°42' W 055°36'7 7.0 270 / 141001.3 1.6 0.5
2018-Jun-15 07:00N 53°36' W 055°30'1414.0 290 / 141000.8 1.6 0.5
2018-Jun-15 06:00N 53°24' W 055°18'6 6.0 290 / 151000.5 4.2 2.0
2018-Jun-15 05:00N 53°18' W 055°18'6 6.0 170 / 61000.6 7.4 2.2
2018-Jun-15 04:00N 53°12' W 055°18'   070 / 21001.0 5.3 1.8

Dump ship's entire track history